sensor_id;sensor_type;location;lat;lon;timestamp;pressure;altitude;pressure_sealevel;temperature;humidity
24422;BME280;12600;53.326;-6.298;2023-05-07T00:01:05;100921.94;;;17.29;68.49
24422;BME280;12600;53.326;-6.298;2023-05-07T00:03:54;100915.53;;;17.25;68.49
24422;BME280;12600;53.326;-6.298;2023-05-07T00:06:44;100918.75;;;17.27;68.46
24422;BME280;12600;53.326;-6.298;2023-05-07T00:09:33;100928.53;;;17.25;68.73
24422;BME280;12600;53.326;-6.298;2023-05-07T00:12:24;100923.94;;;17.17;68.94
24422;BME280;12600;53.326;-6.298;2023-05-07T00:15:13;100909.66;;;17.15;69.39
24422;BME280;12600;53.326;-6.298;2023-05-07T00:18:03;100917.72;;;17.08;69.99
24422;BME280;12600;53.326;-6.298;2023-05-07T00:20:52;100916.59;;;17.09;69.69
24422;BME280;12600;53.326;-6.298;2023-05-07T00:23:42;100916.38;;;17.01;70.32
24422;BME280;12600;53.326;-6.298;2023-05-07T00:26:31;100920.84;;;16.94;70.57
24422;BME280;12600;53.326;-6.298;2023-05-07T00:29:22;100927.28;;;16.98;70.61
24422;BME280;12600;53.326;-6.298;2023-05-07T00:32:11;100924.75;;;16.93;71.35
24422;BME280;12600;53.326;-6.298;2023-05-07T00:35:01;100919.25;;;16.93;71.07
24422;BME280;12600;53.326;-6.298;2023-05-07T00:37:50;100917.59;;;16.92;71.14
24422;BME280;12600;53.326;-6.298;2023-05-07T00:40:39;100924.53;;;16.86;71.85
24422;BME280;12600;53.326;-6.298;2023-05-07T00:43:29;100928.44;;;16.85;71.88
24422;BME280;12600;53.326;-6.298;2023-05-07T00:46:21;100925.91;;;16.80;71.85
24422;BME280;12600;53.326;-6.298;2023-05-07T00:49:10;100934.63;;;16.82;72.02
24422;BME280;12600;53.326;-6.298;2023-05-07T00:52:00;100931.41;;;16.80;71.97
24422;BME280;12600;53.326;-6.298;2023-05-07T00:54:50;100931.06;;;16.81;71.59
24422;BME280;12600;53.326;-6.298;2023-05-07T00:57:41;100923.44;;;16.66;71.85
24422;BME280;12600;53.326;-6.298;2023-05-07T01:00:30;100944.06;;;16.81;71.79
24422;BME280;12600;53.326;-6.298;2023-05-07T01:03:21;100940.16;;;16.82;71.37
24422;BME280;12600;53.326;-6.298;2023-05-07T01:06:13;100932.94;;;16.77;70.91
24422;BME280;12600;53.326;-6.298;2023-05-07T01:09:05;100937.41;;;16.82;71.09
24422;BME280;12600;53.326;-6.298;2023-05-07T01:11:55;100941.91;;;16.86;70.81
24422;BME280;12600;53.326;-6.298;2023-05-07T01:14:46;100936.03;;;16.88;70.55
24422;BME280;12600;53.326;-6.298;2023-05-07T01:17:39;100924.53;;;16.86;70.43
24422;BME280;12600;53.326;-6.298;2023-05-07T01:20:35;100936.47;;;16.90;70.09
24422;BME280;12600;53.326;-6.298;2023-05-07T01:23:27;100941.19;;;16.89;69.80
24422;BME280;12600;53.326;-6.298;2023-05-07T01:26:17;100948.44;;;16.94;69.71
24422;BME280;12600;53.326;-6.298;2023-05-07T01:29:07;100946.84;;;16.93;69.77
24422;BME280;12600;53.326;-6.298;2023-05-07T01:32:00;100934.06;;;16.88;69.26
24422;BME280;12600;53.326;-6.298;2023-05-07T01:34:50;100946.16;;;16.96;69.21
24422;BME280;12600;53.326;-6.298;2023-05-07T01:37:41;100947.75;;;16.97;68.90
24422;BME280;12600;53.326;-6.298;2023-05-07T01:40:32;100900.22;;;16.67;68.22
24422;BME280;12600;53.326;-6.298;2023-05-07T01:43:22;100942.44;;;16.92;68.07
24422;BME280;12600;53.326;-6.298;2023-05-07T01:46:12;100949.59;;;16.93;68.00
24422;BME280;12600;53.326;-6.298;2023-05-07T01:49:02;100950.06;;;16.95;67.60
24422;BME280;12600;53.326;-6.298;2023-05-07T01:51:51;100939.59;;;16.88;67.34
24422;BME280;12600;53.326;-6.298;2023-05-07T01:54:41;100956.72;;;16.94;66.57
24422;BME280;12600;53.326;-6.298;2023-05-07T01:57:31;100954.66;;;16.91;66.67
24422;BME280;12600;53.326;-6.298;2023-05-07T02:00:22;100947.41;;;16.86;66.69
24422;BME280;12600;53.326;-6.298;2023-05-07T02:03:11;100953.03;;;16.90;65.69
24422;BME280;12600;53.326;-6.298;2023-05-07T02:06:09;100966.38;;;16.88;66.07
24422;BME280;12600;53.326;-6.298;2023-05-07T02:09:00;100968.34;;;16.87;66.34
24422;BME280;12600;53.326;-6.298;2023-05-07T02:11:49;100966.38;;;16.88;66.25
24422;BME280;12600;53.326;-6.298;2023-05-07T02:14:42;100963.50;;;16.84;65.69
24422;BME280;12600;53.326;-6.298;2023-05-07T02:17:32;100975.00;;;16.86;65.39
24422;BME280;12600;53.326;-6.298;2023-05-07T02:20:21;100961.63;;;16.76;65.57
24422;BME280;12600;53.326;-6.298;2023-05-07T02:23:11;100962.38;;;16.85;65.55
24422;BME280;12600;53.326;-6.298;2023-05-07T02:26:00;100970.28;;;16.87;65.57
24422;BME280;12600;53.326;-6.298;2023-05-07T02:28:50;100971.91;;;16.88;65.64
24422;BME280;12600;53.326;-6.298;2023-05-07T02:31:41;100952.44;;;16.72;65.79
24422;BME280;12600;53.326;-6.298;2023-05-07T02:34:31;100968.09;;;16.80;66.17
24422;BME280;12600;53.326;-6.298;2023-05-07T02:37:21;100980.75;;;16.81;66.33
24422;BME280;12600;53.326;-6.298;2023-05-07T02:40:12;100967.84;;;16.73;66.38
24422;BME280;12600;53.326;-6.298;2023-05-07T02:43:01;100965.22;;;16.76;66.54
24422;BME280;12600;53.326;-6.298;2023-05-07T02:46:01;100957.84;;;16.68;66.49
24422;BME280;12600;53.326;-6.298;2023-05-07T02:48:52;100954.59;;;16.66;66.74
24422;BME280;12600;53.326;-6.298;2023-05-07T02:51:41;100940.56;;;16.47;66.56
24422;BME280;12600;53.326;-6.298;2023-05-07T02:54:37;100958.94;;;16.55;66.92
24422;BME280;12600;53.326;-6.298;2023-05-07T02:57:26;100949.50;;;16.44;66.62
24422;BME280;12600;53.326;-6.298;2023-05-07T03:00:18;100946.38;;;16.33;66.91
24422;BME280;12600;53.326;-6.298;2023-05-07T03:03:20;100953.38;;;16.31;67.13
24422;BME280;12600;53.326;-6.298;2023-05-07T03:06:11;100935.72;;;16.11;67.33
24422;BME280;12600;53.326;-6.298;2023-05-07T03:09:01;100955.41;;;16.21;67.50
24422;BME280;12600;53.326;-6.298;2023-05-07T03:11:51;100959.19;;;16.17;67.82
24422;BME280;12600;53.326;-6.298;2023-05-07T03:14:40;100968.00;;;16.10;68.07
24422;BME280;12600;53.326;-6.298;2023-05-07T03:17:30;100970.19;;;16.05;68.32
24422;BME280;12600;53.326;-6.298;2023-05-07T03:20:19;100979.56;;;16.04;68.25
24422;BME280;12600;53.326;-6.298;2023-05-07T03:23:10;100981.50;;;16.03;68.37
24422;BME280;12600;53.326;-6.298;2023-05-07T03:25:59;100979.44;;;16.00;68.57
24422;BME280;12600;53.326;-6.298;2023-05-07T03:28:49;100982.19;;;16.00;68.49
24422;BME280;12600;53.326;-6.298;2023-05-07T03:31:38;100979.78;;;15.99;68.31
24422;BME280;12600;53.326;-6.298;2023-05-07T03:34:27;100982.88;;;15.97;67.96
24422;BME280;12600;53.326;-6.298;2023-05-07T03:37:17;100982.41;;;15.95;68.24
24422;BME280;12600;53.326;-6.298;2023-05-07T03:40:09;100982.41;;;15.95;68.33
24422;BME280;12600;53.326;-6.298;2023-05-07T03:43:10;100981.13;;;15.92;68.47
24422;BME280;12600;53.326;-6.298;2023-05-07T03:46:04;100991.47;;;15.95;68.54
24422;BME280;12600;53.326;-6.298;2023-05-07T03:48:54;100987.44;;;15.93;68.85
24422;BME280;12600;53.326;-6.298;2023-05-07T03:51:44;100991.34;;;15.92;68.75
24422;BME280;12600;53.326;-6.298;2023-05-07T03:54:33;100985.72;;;15.88;68.44
24422;BME280;12600;53.326;-6.298;2023-05-07T03:57:24;100991.88;;;15.85;68.75
24422;BME280;12600;53.326;-6.298;2023-05-07T04:00:14;101005.94;;;15.92;68.66
24422;BME280;12600;53.326;-6.298;2023-05-07T04:03:09;101000.06;;;15.94;68.57
24422;BME280;12600;53.326;-6.298;2023-05-07T04:05:59;101000.53;;;15.96;68.42
24422;BME280;12600;53.326;-6.298;2023-05-07T04:08:48;100997.47;;;15.98;67.84
24422;BME280;12600;53.326;-6.298;2023-05-07T04:11:38;101000.34;;;16.01;67.90
24422;BME280;12600;53.326;-6.298;2023-05-07T04:14:32;100983.81;;;16.01;67.81
24422;BME280;12600;53.326;-6.298;2023-05-07T04:17:22;100991.09;;;16.06;67.31
24422;BME280;12600;53.326;-6.298;2023-05-07T04:20:15;100995.63;;;16.02;66.24
24422;BME280;12600;53.326;-6.298;2023-05-07T04:23:10;100999.19;;;16.02;66.65
24422;BME280;12600;53.326;-6.298;2023-05-07T04:26:00;101010.38;;;16.06;66.30
24422;BME280;12600;53.326;-6.298;2023-05-07T04:28:55;101003.72;;;16.07;66.42
24422;BME280;12600;53.326;-6.298;2023-05-07T04:31:48;101003.38;;;16.08;65.97
24422;BME280;12600;53.326;-6.298;2023-05-07T04:34:37;101009.50;;;16.14;66.49
24422;BME280;12600;53.326;-6.298;2023-05-07T04:37:27;101008.13;;;16.20;66.44
24422;BME280;12600;53.326;-6.298;2023-05-07T04:40:17;101009.06;;;16.24;66.25
24422;BME280;12600;53.326;-6.298;2023-05-07T04:43:07;101012.75;;;16.28;66.22
24422;BME280;12600;53.326;-6.298;2023-05-07T04:46:04;101004.47;;;16.28;66.04
24422;BME280;12600;53.326;-6.298;2023-05-07T04:48:55;101018.41;;;16.32;65.66
24422;BME280;12600;53.326;-6.298;2023-05-07T04:51:45;101021.16;;;16.32;65.17
24422;BME280;12600;53.326;-6.298;2023-05-07T04:54:39;101019.09;;;16.29;65.38
24422;BME280;12600;53.326;-6.298;2023-05-07T04:57:29;101009.88;;;16.25;65.28
24422;BME280;12600;53.326;-6.298;2023-05-07T05:00:19;101024.38;;;16.34;64.85
24422;BME280;12600;53.326;-6.298;2023-05-07T05:03:10;101018.06;;;16.33;64.85
24422;BME280;12600;53.326;-6.298;2023-05-07T05:06:02;101023.47;;;16.30;64.79
24422;BME280;12600;53.326;-6.298;2023-05-07T05:08:54;101023.31;;;16.26;64.54
24422;BME280;12600;53.326;-6.298;2023-05-07T05:11:45;101019.28;;;16.23;64.70
24422;BME280;12600;53.326;-6.298;2023-05-07T05:14:35;101019.84;;;16.17;63.60
24422;BME280;12600;53.326;-6.298;2023-05-07T05:17:25;101024.44;;;16.13;63.98
24422;BME280;12600;53.326;-6.298;2023-05-07T05:20:15;101021.53;;;16.09;63.44
24422;BME280;12600;53.326;-6.298;2023-05-07T05:23:07;101021.84;;;16.08;63.75
24422;BME280;12600;53.326;-6.298;2023-05-07T05:25:57;101015.41;;;16.04;63.52
24422;BME280;12600;53.326;-6.298;2023-05-07T05:28:50;101024.88;;;16.15;63.75
24422;BME280;12600;53.326;-6.298;2023-05-07T05:31:42;101038.78;;;16.18;63.78
24422;BME280;12600;53.326;-6.298;2023-05-07T05:34:31;101034.69;;;16.25;63.99
24422;BME280;12600;53.326;-6.298;2023-05-07T05:37:21;101029.63;;;16.27;63.72
24422;BME280;12600;53.326;-6.298;2023-05-07T05:40:13;101025.59;;;16.24;63.27
24422;BME280;12600;53.326;-6.298;2023-05-07T05:43:02;101033.19;;;16.27;63.46
24422;BME280;12600;53.326;-6.298;2023-05-07T05:45:54;101030.78;;;16.26;63.25
24422;BME280;12600;53.326;-6.298;2023-05-07T05:48:44;101035.03;;;16.23;63.15
24422;BME280;12600;53.326;-6.298;2023-05-07T05:51:34;101016.97;;;16.13;63.19
24422;BME280;12600;53.326;-6.298;2023-05-07T05:54:23;101037.19;;;16.17;63.24
24422;BME280;12600;53.326;-6.298;2023-05-07T05:57:14;101036.72;;;16.15;62.99
24422;BME280;12600;53.326;-6.298;2023-05-07T06:00:06;101037.06;;;16.14;63.22
24422;BME280;12600;53.326;-6.298;2023-05-07T06:03:05;101033.97;;;16.15;63.38
24422;BME280;12600;53.326;-6.298;2023-05-07T06:05:56;101033.50;;;16.13;63.51
24422;BME280;12600;53.326;-6.298;2023-05-07T06:08:46;101030.50;;;16.18;63.80
24422;BME280;12600;53.326;-6.298;2023-05-07T06:11:41;101034.31;;;16.14;63.74
24422;BME280;12600;53.326;-6.298;2023-05-07T06:14:33;101030.31;;;16.23;63.89
24422;BME280;12600;53.326;-6.298;2023-05-07T06:17:22;101049.81;;;16.39;63.82
24422;BME280;12600;53.326;-6.298;2023-05-07T06:20:12;101046.97;;;16.48;63.58
24422;BME280;12600;53.326;-6.298;2023-05-07T06:23:02;101053.53;;;16.56;63.69
24422;BME280;12600;53.326;-6.298;2023-05-07T06:25:53;101056.22;;;16.64;63.51
24422;BME280;12600;53.326;-6.298;2023-05-07T06:28:49;101060.88;;;16.72;63.52
24422;BME280;12600;53.326;-6.298;2023-05-07T06:31:41;101075.72;;;16.80;63.30
24422;BME280;12600;53.326;-6.298;2023-05-07T06:34:31;101074.91;;;16.80;61.88
24422;BME280;12600;53.326;-6.298;2023-05-07T06:37:21;101080.44;;;16.80;61.78
24422;BME280;12600;53.326;-6.298;2023-05-07T06:40:18;101078.13;;;16.82;62.46
24422;BME280;12600;53.326;-6.298;2023-05-07T06:43:08;101079.19;;;16.89;62.69
24422;BME280;12600;53.326;-6.298;2023-05-07T06:46:16;101089.94;;;17.03;61.96
24422;BME280;12600;53.326;-6.298;2023-05-07T06:49:08;101094.78;;;17.18;62.48
24422;BME280;12600;53.326;-6.298;2023-05-07T06:51:58;101098.25;;;17.40;62.49
24422;BME280;12600;53.326;-6.298;2023-05-07T06:54:47;101109.09;;;17.57;62.39
24422;BME280;12600;53.326;-6.298;2023-05-07T06:57:38;101095.75;;;17.71;62.43
24422;BME280;12600;53.326;-6.298;2023-05-07T07:00:28;101095.25;;;17.94;63.29
24422;BME280;12600;53.326;-6.298;2023-05-07T07:03:17;101099.94;;;18.17;62.82
24422;BME280;12600;53.326;-6.298;2023-05-07T07:06:08;101108.91;;;18.27;59.82
24422;BME280;12600;53.326;-6.298;2023-05-07T07:08:58;101105.31;;;18.38;61.13
24422;BME280;12600;53.326;-6.298;2023-05-07T07:11:47;101113.56;;;18.51;61.10
24422;BME280;12600;53.326;-6.298;2023-05-07T07:14:37;101124.03;;;18.57;61.46
24422;BME280;12600;53.326;-6.298;2023-05-07T07:17:27;101119.28;;;18.58;60.71
24422;BME280;12600;53.326;-6.298;2023-05-07T07:20:17;101116.44;;;18.54;60.81
24422;BME280;12600;53.326;-6.298;2023-05-07T07:23:08;101122.28;;;18.53;59.67
24422;BME280;12600;53.326;-6.298;2023-05-07T07:25:58;101119.09;;;18.51;59.99
24422;BME280;12600;53.326;-6.298;2023-05-07T07:28:48;101111.94;;;18.50;59.40
24422;BME280;12600;53.326;-6.298;2023-05-07T07:31:40;101111.44;;;18.60;58.89
24422;BME280;12600;53.326;-6.298;2023-05-07T07:34:30;101115.09;;;18.76;59.32
24422;BME280;12600;53.326;-6.298;2023-05-07T07:37:21;101123.97;;;18.97;59.10
24422;BME280;12600;53.326;-6.298;2023-05-07T07:40:15;101119.88;;;19.07;57.65
24422;BME280;12600;53.326;-6.298;2023-05-07T07:43:06;101120.78;;;19.11;57.88
24422;BME280;12600;53.326;-6.298;2023-05-07T07:45:55;101121.78;;;19.19;57.58
24422;BME280;12600;53.326;-6.298;2023-05-07T07:48:45;101115.97;;;19.24;57.84
24422;BME280;12600;53.326;-6.298;2023-05-07T07:51:34;101124.81;;;19.29;57.03
24422;BME280;12600;53.326;-6.298;2023-05-07T07:54:24;101126.63;;;19.38;56.42
24422;BME280;12600;53.326;-6.298;2023-05-07T07:57:15;101128.94;;;19.51;56.86
24422;BME280;12600;53.326;-6.298;2023-05-07T08:00:06;101129.03;;;19.71;57.33
24422;BME280;12600;53.326;-6.298;2023-05-07T08:03:03;101128.66;;;19.88;57.28
24422;BME280;12600;53.326;-6.298;2023-05-07T08:05:58;101130.59;;;20.03;57.01
24422;BME280;12600;53.326;-6.298;2023-05-07T08:08:47;101122.44;;;20.10;55.67
24422;BME280;12600;53.326;-6.298;2023-05-07T08:11:38;101118.97;;;20.33;55.59
24422;BME280;12600;53.326;-6.298;2023-05-07T08:14:29;101125.56;;;20.44;54.53
24422;BME280;12600;53.326;-6.298;2023-05-07T08:17:18;101120.03;;;20.63;55.23
24422;BME280;12600;53.326;-6.298;2023-05-07T08:20:11;101123.34;;;20.92;55.09
24422;BME280;12600;53.326;-6.298;2023-05-07T08:23:01;101113.63;;;21.24;55.04
24422;BME280;12600;53.326;-6.298;2023-05-07T08:25:50;101105.84;;;21.57;55.12
24422;BME280;12600;53.326;-6.298;2023-05-07T08:28:41;101111.09;;;21.88;54.14
24422;BME280;12600;53.326;-6.298;2023-05-07T08:31:31;101114.75;;;22.19;54.24
24422;BME280;12600;53.326;-6.298;2023-05-07T08:34:22;101115.50;;;22.46;53.37
24422;BME280;12600;53.326;-6.298;2023-05-07T08:37:13;101109.94;;;22.79;53.07
24422;BME280;12600;53.326;-6.298;2023-05-07T08:40:03;101118.34;;;23.20;52.93
24422;BME280;12600;53.326;-6.298;2023-05-07T08:42:59;101120.72;;;23.62;51.28
24422;BME280;12600;53.326;-6.298;2023-05-07T08:45:50;101123.00;;;24.01;50.61
24422;BME280;12600;53.326;-6.298;2023-05-07T08:48:50;101115.19;;;24.32;48.87
24422;BME280;12600;53.326;-6.298;2023-05-07T08:51:42;101127.63;;;24.41;47.66
24422;BME280;12600;53.326;-6.298;2023-05-07T08:54:32;101127.88;;;24.22;46.20
24422;BME280;12600;53.326;-6.298;2023-05-07T08:57:22;101143.00;;;24.14;46.49
24422;BME280;12600;53.326;-6.298;2023-05-07T09:00:14;101128.28;;;24.17;46.54
24422;BME280;12600;53.326;-6.298;2023-05-07T09:03:06;101131.19;;;24.38;46.90
24422;BME280;12600;53.326;-6.298;2023-05-07T09:05:58;101127.63;;;24.41;46.40
24422;BME280;12600;53.326;-6.298;2023-05-07T09:08:50;101134.41;;;24.44;43.98
24422;BME280;12600;53.326;-6.298;2023-05-07T09:11:40;101126.44;;;24.46;46.86
24422;BME280;12600;53.326;-6.298;2023-05-07T09:14:31;101136.25;;;24.22;46.27
24422;BME280;12600;53.326;-6.298;2023-05-07T09:17:23;101132.13;;;23.94;46.23
24422;BME280;12600;53.326;-6.298;2023-05-07T09:20:13;101132.75;;;23.70;46.36
24422;BME280;12600;53.326;-6.298;2023-05-07T09:23:05;101129.84;;;23.59;46.54
24422;BME280;12600;53.326;-6.298;2023-05-07T09:26:00;101133.06;;;23.61;47.33
24422;BME280;12600;53.326;-6.298;2023-05-07T09:28:53;101136.28;;;23.63;47.65
24422;BME280;12600;53.326;-6.298;2023-05-07T09:31:43;101140.66;;;23.61;47.62
24422;BME280;12600;53.326;-6.298;2023-05-07T09:34:36;101136.34;;;23.30;47.47
24422;BME280;12600;53.326;-6.298;2023-05-07T09:37:27;101128.66;;;23.16;47.61
24422;BME280;12600;53.326;-6.298;2023-05-07T09:40:26;101138.59;;;23.17;46.55
24422;BME280;12600;53.326;-6.298;2023-05-07T09:43:19;101132.34;;;22.86;47.07
24422;BME280;12600;53.326;-6.298;2023-05-07T09:46:15;101141.91;;;22.59;47.37
24422;BME280;12600;53.326;-6.298;2023-05-07T09:49:22;101144.72;;;22.29;47.84
24422;BME280;12600;53.326;-6.298;2023-05-07T09:52:18;101139.28;;;22.10;48.19
24422;BME280;12600;53.326;-6.298;2023-05-07T09:55:12;101129.75;;;21.84;47.74
24422;BME280;12600;53.326;-6.298;2023-05-07T09:58:05;101128.53;;;21.59;47.99
24422;BME280;12600;53.326;-6.298;2023-05-07T10:00:57;101130.88;;;21.57;49.05
24422;BME280;12600;53.326;-6.298;2023-05-07T10:03:47;101120.91;;;21.78;49.44
24422;BME280;12600;53.326;-6.298;2023-05-07T10:06:38;101118.63;;;22.11;49.01
24422;BME280;12600;53.326;-6.298;2023-05-07T10:09:28;101124.94;;;22.38;49.10
24422;BME280;12600;53.326;-6.298;2023-05-07T10:12:19;101108.78;;;22.47;48.56
24422;BME280;12600;53.326;-6.298;2023-05-07T10:15:11;101101.72;;;22.90;47.66
24422;BME280;12600;53.326;-6.298;2023-05-07T10:18:06;101097.63;;;23.65;46.53
24422;BME280;12600;53.326;-6.298;2023-05-07T10:21:04;101106.84;;;24.35;44.45
24422;BME280;12600;53.326;-6.298;2023-05-07T10:23:59;101102.97;;;24.65;42.82
24422;BME280;12600;53.326;-6.298;2023-05-07T10:26:53;101101.44;;;24.92;41.97
24422;BME280;12600;53.326;-6.298;2023-05-07T10:29:54;101105.50;;;25.30;41.17
24422;BME280;12600;53.326;-6.298;2023-05-07T10:32:55;101107.91;;;25.53;39.49
24422;BME280;12600;53.326;-6.298;2023-05-07T10:35:51;101115.09;;;25.79;39.78
24422;BME280;12600;53.326;-6.298;2023-05-07T10:38:44;101121.50;;;25.94;39.33
24422;BME280;12600;53.326;-6.298;2023-05-07T10:41:35;101127.81;;;26.27;39.34
24422;BME280;12600;53.326;-6.298;2023-05-07T10:44:26;101123.66;;;26.67;38.70
24422;BME280;12600;53.326;-6.298;2023-05-07T10:47:21;101113.75;;;27.21;38.48
24422;BME280;12600;53.326;-6.298;2023-05-07T10:50:23;101110.94;;;27.66;36.08
24422;BME280;12600;53.326;-6.298;2023-05-07T10:53:23;101108.69;;;27.50;35.42
24422;BME280;12600;53.326;-6.298;2023-05-07T10:56:27;101100.94;;;27.20;35.57
24422;BME280;12600;53.326;-6.298;2023-05-07T10:59:35;101098.31;;;26.88;36.08
24422;BME280;12600;53.326;-6.298;2023-05-07T11:03:04;101103.75;;;26.47;36.71
24422;BME280;12600;53.326;-6.298;2023-05-07T11:06:13;101107.06;;;25.96;37.23
24422;BME280;12600;53.326;-6.298;2023-05-07T11:09:59;101106.31;;;25.42;38.43
24422;BME280;12600;53.326;-6.298;2023-05-07T11:13:10;101121.88;;;25.50;38.71
24422;BME280;12600;53.326;-6.298;2023-05-07T11:16:17;101119.13;;;25.71;39.10
24422;BME280;12600;53.326;-6.298;2023-05-07T11:19:10;101122.69;;;25.93;38.91
24422;BME280;12600;53.326;-6.298;2023-05-07T11:22:05;101112.59;;;26.20;38.34
24422;BME280;12600;53.326;-6.298;2023-05-07T11:25:25;101111.75;;;26.45;38.04
24422;BME280;12600;53.326;-6.298;2023-05-07T11:28:21;101110.06;;;26.62;37.59
24422;BME280;12600;53.326;-6.298;2023-05-07T11:31:26;101114.09;;;26.54;37.42
24422;BME280;12600;53.326;-6.298;2023-05-07T11:34:22;101114.56;;;26.41;38.14
24422;BME280;12600;53.326;-6.298;2023-05-07T11:37:18;101112.06;;;26.61;38.39
24422;BME280;12600;53.326;-6.298;2023-05-07T11:40:16;101113.19;;;26.82;37.77
24422;BME280;12600;53.326;-6.298;2023-05-07T11:43:10;101109.88;;;27.04;37.24
24422;BME280;12600;53.326;-6.298;2023-05-07T11:46:07;101112.19;;;27.13;37.22
24422;BME280;12600;53.326;-6.298;2023-05-07T11:48:57;101117.63;;;27.38;37.79
24422;BME280;12600;53.326;-6.298;2023-05-07T11:51:47;101112.53;;;27.19;36.96
24422;BME280;12600;53.326;-6.298;2023-05-07T11:54:38;101123.25;;;26.72;37.53
24422;BME280;12600;53.326;-6.298;2023-05-07T11:57:27;101119.75;;;26.36;38.16
24422;BME280;12600;53.326;-6.298;2023-05-07T12:00:17;101115.84;;;26.05;38.69
24422;BME280;12600;53.326;-6.298;2023-05-07T12:03:07;101118.28;;;25.88;39.22
24422;BME280;12600;53.326;-6.298;2023-05-07T12:05:56;101118.31;;;25.67;39.60
24422;BME280;12600;53.326;-6.298;2023-05-07T12:08:46;101127.88;;;25.48;39.91
24422;BME280;12600;53.326;-6.298;2023-05-07T12:11:38;101124.28;;;25.65;40.04
24422;BME280;12600;53.326;-6.298;2023-05-07T12:14:28;101124.69;;;25.96;40.16
24422;BME280;12600;53.326;-6.298;2023-05-07T12:17:18;101118.66;;;25.98;39.82
24422;BME280;12600;53.326;-6.298;2023-05-07T12:20:09;101107.09;;;25.92;40.09
24422;BME280;12600;53.326;-6.298;2023-05-07T12:22:58;101110.72;;;25.71;39.73
24422;BME280;12600;53.326;-6.298;2023-05-07T12:25:48;101118.69;;;25.41;38.90
24422;BME280;12600;53.326;-6.298;2023-05-07T12:28:39;101123.00;;;25.02;39.16
24422;BME280;12600;53.326;-6.298;2023-05-07T12:31:29;101105.78;;;24.72;38.40
24422;BME280;12600;53.326;-6.298;2023-05-07T12:34:18;101117.44;;;24.99;38.72
24422;BME280;12600;53.326;-6.298;2023-05-07T12:37:07;101109.50;;;25.47;38.39
24422;BME280;12600;53.326;-6.298;2023-05-07T12:40:04;101115.47;;;25.96;36.66
24422;BME280;12600;53.326;-6.298;2023-05-07T12:42:55;101106.94;;;26.49;35.81
24422;BME280;12600;53.326;-6.298;2023-05-07T12:45:50;101091.47;;;26.93;35.33
24422;BME280;12600;53.326;-6.298;2023-05-07T12:48:43;101096.91;;;27.21;33.55
24422;BME280;12600;53.326;-6.298;2023-05-07T12:51:35;101091.00;;;27.57;33.24
24422;BME280;12600;53.326;-6.298;2023-05-07T12:54:29;101088.13;;;27.68;32.42
24422;BME280;12600;53.326;-6.298;2023-05-07T12:57:20;101092.50;;;27.65;32.58
24422;BME280;12600;53.326;-6.298;2023-05-07T13:00:11;101091.63;;;27.79;32.63
24422;BME280;12600;53.326;-6.298;2023-05-07T13:03:02;101076.34;;;27.83;32.51
24422;BME280;12600;53.326;-6.298;2023-05-07T13:05:52;101114.44;;;27.84;33.11
24422;BME280;12600;53.326;-6.298;2023-05-07T13:08:45;101104.50;;;27.76;33.69
24422;BME280;12600;53.326;-6.298;2023-05-07T13:11:35;101111.28;;;27.79;34.05
24422;BME280;12600;53.326;-6.298;2023-05-07T13:14:24;101120.16;;;27.22;34.11
24422;BME280;12600;53.326;-6.298;2023-05-07T13:17:14;101118.00;;;26.77;35.32
24422;BME280;12600;53.326;-6.298;2023-05-07T13:20:06;101120.16;;;26.45;35.72
24422;BME280;12600;53.326;-6.298;2023-05-07T13:22:55;101129.88;;;26.01;36.59
24422;BME280;12600;53.326;-6.298;2023-05-07T13:25:45;101129.09;;;25.54;36.64
24422;BME280;12600;53.326;-6.298;2023-05-07T13:28:35;101135.88;;;25.39;36.80
24422;BME280;12600;53.326;-6.298;2023-05-07T13:31:25;101128.25;;;25.07;36.67
24422;BME280;12600;53.326;-6.298;2023-05-07T13:34:14;101127.38;;;24.82;37.06
24422;BME280;12600;53.326;-6.298;2023-05-07T13:37:05;101140.50;;;24.67;37.37
24422;BME280;12600;53.326;-6.298;2023-05-07T13:39:58;101144.81;;;24.47;38.06
24422;BME280;12600;53.326;-6.298;2023-05-07T13:42:47;101137.50;;;24.28;37.60
24422;BME280;12600;53.326;-6.298;2023-05-07T13:45:36;101143.13;;;24.32;37.57
24422;BME280;12600;53.326;-6.298;2023-05-07T13:48:26;101145.66;;;24.54;38.08
24422;BME280;12600;53.326;-6.298;2023-05-07T13:51:16;101146.00;;;24.49;37.66
24422;BME280;12600;53.326;-6.298;2023-05-07T13:54:07;101138.84;;;24.52;37.50
24422;BME280;12600;53.326;-6.298;2023-05-07T13:56:56;101134.94;;;24.85;38.23
24422;BME280;12600;53.326;-6.298;2023-05-07T13:59:46;101127.88;;;25.13;37.97
24422;BME280;12600;53.326;-6.298;2023-05-07T14:02:35;101124.69;;;25.35;37.48
24422;BME280;12600;53.326;-6.298;2023-05-07T14:05:24;101119.50;;;25.41;37.09
24422;BME280;12600;53.326;-6.298;2023-05-07T14:08:15;101123.91;;;25.53;36.64
24422;BME280;12600;53.326;-6.298;2023-05-07T14:11:08;101119.88;;;25.50;36.04
24422;BME280;12600;53.326;-6.298;2023-05-07T14:13:58;101115.91;;;25.73;35.76
24422;BME280;12600;53.326;-6.298;2023-05-07T14:16:47;101113.53;;;25.75;35.50
24422;BME280;12600;53.326;-6.298;2023-05-07T14:19:38;101099.84;;;26.16;35.41
24422;BME280;12600;53.326;-6.298;2023-05-07T14:22:27;101090.97;;;26.32;34.75
24422;BME280;12600;53.326;-6.298;2023-05-07T14:25:27;101107.78;;;26.32;34.76
24422;BME280;12600;53.326;-6.298;2023-05-07T14:28:38;101092.59;;;26.22;34.76
24422;BME280;12600;53.326;-6.298;2023-05-07T14:31:28;101105.00;;;26.21;34.33
24422;BME280;12600;53.326;-6.298;2023-05-07T14:34:17;101105.50;;;25.91;33.59
24422;BME280;12600;53.326;-6.298;2023-05-07T14:37:07;101099.09;;;25.65;34.38
24422;BME280;12600;53.326;-6.298;2023-05-07T14:39:56;101094.31;;;25.48;34.53
24422;BME280;12600;53.326;-6.298;2023-05-07T14:42:45;101102.72;;;25.13;35.23
24422;BME280;12600;53.326;-6.298;2023-05-07T14:45:36;101097.03;;;24.84;36.07
24422;BME280;12600;53.326;-6.298;2023-05-07T14:48:26;101094.56;;;24.58;36.41